createdAt,value
2022-12-12T00:01:34.997Z,95454.13
2022-12-12T00:04:02.527Z,95461.22
2022-12-12T00:06:29.613Z,95455.63
2022-12-12T00:08:56.271Z,95427.91
2022-12-12T00:11:23.563Z,95465.97
2022-12-12T00:13:50.812Z,95403.84
2022-12-12T00:16:17.686Z,95466.03
2022-12-12T00:18:44.740Z,95393.75
2022-12-12T00:21:15.767Z,95411.19
2022-12-12T00:23:42.938Z,95426.50
2022-12-12T00:26:24.859Z,95458.38
2022-12-12T00:28:51.998Z,95453.63
2022-12-12T00:31:19.082Z,95466.22
2022-12-12T00:33:48.018Z,95454.94
2022-12-12T00:36:15.120Z,95458.53
2022-12-12T00:38:41.793Z,95469.09
2022-12-12T00:41:09.167Z,95477.50
2022-12-12T00:43:36.018Z,95475.41
2022-12-12T00:46:02.842Z,95477.06
2022-12-12T00:48:29.901Z,95477.91
2022-12-12T00:50:57.025Z,95482.66
2022-12-12T00:53:24.427Z,95467.34
2022-12-12T00:55:58.171Z,95469.03
2022-12-12T00:58:25.833Z,95483.81
2022-12-12T01:00:53.698Z,95486.31
2022-12-12T01:03:20.992Z,95493.84
2022-12-12T01:05:48.562Z,95482.09
2022-12-12T01:08:15.341Z,95466.94
2022-12-12T01:10:42.013Z,95494.81
2022-12-12T01:13:08.631Z,95494.59
2022-12-12T01:15:35.230Z,95454.59
2022-12-12T01:18:01.835Z,95505.22
2022-12-12T01:20:28.884Z,95510.53
2022-12-12T01:22:56.731Z,95471.47
2022-12-12T01:25:23.810Z,95509.50
2022-12-12T01:27:50.934Z,95497.91
2022-12-12T01:30:21.503Z,95498.75
2022-12-12T01:32:49.002Z,95525.59
2022-12-12T01:35:15.949Z,95519.69
2022-12-12T01:37:42.897Z,95527.09
2022-12-12T01:40:16.098Z,95523.81
2022-12-12T01:42:43.143Z,95511.81
2022-12-12T01:45:47.970Z,95526.84
2022-12-12T01:48:14.831Z,95523.34
2022-12-12T01:50:43.275Z,95517.88
2022-12-12T01:53:11.945Z,95525.66
2022-12-12T01:55:38.750Z,95501.66
2022-12-12T01:58:05.567Z,95518.00
2022-12-12T02:00:32.449Z,95527.22
2022-12-12T02:03:00.197Z,95524.97
2022-12-12T02:05:36.026Z,95524.09
2022-12-12T02:08:04.434Z,95525.19
2022-12-12T02:10:31.210Z,95542.75
2022-12-12T02:13:03.365Z,95504.66
2022-12-12T02:15:41.044Z,95529.09
2022-12-12T02:18:21.370Z,95544.28
2022-12-12T02:21:01.496Z,95541.41
2022-12-12T02:23:40.199Z,95537.69
2022-12-12T02:26:28.659Z,95539.72
2022-12-12T02:29:29.361Z,95537.59
2022-12-12T02:32:07.720Z,95538.78
2022-12-12T02:34:41.974Z,95543.63
2022-12-12T02:37:20.675Z,95529.09
2022-12-12T02:40:07.098Z,95537.47
2022-12-12T02:42:44.406Z,95546.13
2022-12-12T02:45:52.579Z,95545.13
2022-12-12T02:48:28.195Z,95543.81
2022-12-12T02:50:58.517Z,95542.63
2022-12-12T02:53:25.187Z,95513.63
2022-12-12T02:56:08.603Z,95542.22
2022-12-12T02:58:38.702Z,95505.75
2022-12-12T03:01:14.046Z,95541.63
2022-12-12T03:04:36.939Z,95543.66
2022-12-12T03:07:32.761Z,95539.00
2022-12-12T03:10:14.409Z,95515.03
2022-12-12T03:13:00.780Z,95509.22
2022-12-12T03:15:36.407Z,95539.00
2022-12-12T03:18:17.975Z,95542.13
2022-12-12T03:21:15.551Z,95543.72
2022-12-12T03:23:47.892Z,95540.91
2022-12-12T03:26:43.677Z,95540.44
2022-12-12T03:29:15.345Z,95546.53
2022-12-12T03:31:47.454Z,95549.19
2022-12-12T03:34:21.377Z,95557.16
2022-12-12T03:37:14.300Z,95549.53
2022-12-12T03:39:49.728Z,95552.00
2022-12-12T03:42:25.354Z,95547.88
2022-12-12T03:44:58.227Z,95525.22
2022-12-12T03:47:35.477Z,95528.44
2022-12-12T03:50:09.453Z,95544.50
2022-12-12T03:52:51.799Z,95531.47
2022-12-12T03:55:30.067Z,95543.84
2022-12-12T03:58:05.243Z,95522.66
2022-12-12T04:00:38.240Z,95539.19
2022-12-12T04:03:26.268Z,95535.00
2022-12-12T04:06:26.515Z,95547.06
2022-12-12T04:09:18.645Z,95549.38
2022-12-12T04:12:13.289Z,95543.06
2022-12-12T04:15:18.771Z,95527.09
2022-12-12T04:17:45.451Z,95543.66
2022-12-12T04:21:15.851Z,95546.78
2022-12-12T04:23:54.624Z,95542.88
2022-12-12T04:26:39.801Z,95538.75
2022-12-12T04:29:18.667Z,95547.47
2022-12-12T04:32:15.496Z,95560.50
2022-12-12T04:35:00.312Z,95559.22
2022-12-12T04:37:48.356Z,95531.50
2022-12-12T04:40:25.115Z,95557.53
2022-12-12T04:43:02.974Z,95541.06
2022-12-12T04:45:35.605Z,95555.19
2022-12-12T04:48:05.836Z,95566.88
2022-12-12T04:50:43.732Z,95578.34
2022-12-12T04:53:18.316Z,95569.75
2022-12-12T04:55:52.971Z,95582.03
2022-12-12T04:58:19.784Z,95558.84
2022-12-12T05:00:50.484Z,95539.50
2022-12-12T05:03:41.304Z,95582.31
2022-12-12T05:06:12.865Z,95576.72
2022-12-12T05:08:45.918Z,95561.84
2022-12-12T05:11:13.379Z,95585.63
2022-12-12T05:13:42.831Z,95563.66
2022-12-12T05:16:34.523Z,95581.25
2022-12-12T05:19:01.781Z,95565.69
2022-12-12T05:21:28.410Z,95579.84
2022-12-12T05:23:54.961Z,95575.41
2022-12-12T05:26:28.660Z,95580.50
2022-12-12T05:28:55.725Z,95596.91
2022-12-12T05:31:22.599Z,95587.50
2022-12-12T05:33:50.033Z,95593.31
2022-12-12T05:36:17.365Z,95598.44
2022-12-12T05:38:44.532Z,95567.53
2022-12-12T05:41:11.753Z,95596.34
2022-12-12T05:43:38.751Z,95593.78
2022-12-12T05:46:06.615Z,95576.25
2022-12-12T05:48:33.938Z,95534.63
2022-12-12T05:51:04.020Z,95560.09
2022-12-12T05:53:30.946Z,95585.91
2022-12-12T05:55:57.763Z,95563.09
2022-12-12T05:58:24.467Z,95578.25
2022-12-12T06:00:51.653Z,95599.56
2022-12-12T06:03:18.724Z,95570.09
2022-12-12T06:05:48.377Z,95568.97
2022-12-12T06:08:15.059Z,95578.69
2022-12-12T06:10:41.807Z,95568.47
2022-12-12T06:13:08.464Z,95591.50
2022-12-12T06:15:39.220Z,95559.78
2022-12-12T06:18:06.566Z,95603.22
2022-12-12T06:20:33.255Z,95568.19
2022-12-12T06:23:00.004Z,95583.59
2022-12-12T06:25:26.643Z,95592.28
2022-12-12T06:27:53.433Z,95599.41
2022-12-12T06:30:20.487Z,95605.97
2022-12-12T06:32:47.063Z,95605.41
2022-12-12T06:35:13.911Z,95599.75
2022-12-12T06:37:41.049Z,95612.09
2022-12-12T06:40:08.537Z,95593.25
2022-12-12T06:42:35.131Z,95616.06
2022-12-12T06:45:01.760Z,95617.34
2022-12-12T06:47:28.343Z,95593.84
2022-12-12T06:49:54.915Z,95620.78
2022-12-12T06:52:21.639Z,95621.34
2022-12-12T06:54:50.456Z,95618.00
2022-12-12T06:57:17.133Z,95625.50
2022-12-12T06:59:43.783Z,95636.84
2022-12-12T07:02:12.318Z,95627.81
2022-12-12T07:04:39.013Z,95640.50
2022-12-12T07:07:05.627Z,95637.56
2022-12-12T07:09:32.371Z,95607.94
2022-12-12T07:11:59.048Z,95615.75
2022-12-12T07:14:25.692Z,95640.25
2022-12-12T07:16:52.295Z,95606.44
2022-12-12T07:19:18.941Z,95622.59
2022-12-12T07:21:45.572Z,95622.84
2022-12-12T07:24:12.773Z,95643.38
2022-12-12T07:26:39.360Z,95651.75
2022-12-12T07:29:05.957Z,95643.63
2022-12-12T07:31:33.688Z,95655.28
2022-12-12T07:34:00.354Z,95657.63
2022-12-12T07:36:26.990Z,95656.28
2022-12-12T07:38:53.567Z,95654.38
2022-12-12T07:41:20.866Z,95625.56
2022-12-12T07:43:49.385Z,95662.56
2022-12-12T07:46:23.262Z,95640.13
2022-12-12T07:48:50.425Z,95667.56
2022-12-12T07:51:17.205Z,95655.97
2022-12-12T07:53:44.242Z,95665.47
2022-12-12T07:56:13.013Z,95670.03
2022-12-12T07:58:39.843Z,95668.03
2022-12-12T08:01:14.584Z,95664.44
2022-12-12T08:03:43.433Z,95679.28
2022-12-12T08:06:10.593Z,95675.72
2022-12-12T08:08:37.731Z,95681.06
2022-12-12T08:11:06.616Z,95684.97
2022-12-12T08:13:36.104Z,95686.59
2022-12-12T08:16:05.057Z,95690.63
2022-12-12T08:18:31.982Z,95685.38
2022-12-12T08:20:58.534Z,95689.19
2022-12-12T08:23:25.319Z,95696.31
2022-12-12T08:25:51.927Z,95669.88
2022-12-12T08:28:18.574Z,95662.97
2022-12-12T08:30:49.223Z,95673.47
2022-12-12T08:33:15.835Z,95664.31
2022-12-12T08:35:42.429Z,95693.09
2022-12-12T08:38:09.022Z,95664.03
2022-12-12T08:40:35.961Z,95678.22
2022-12-12T08:43:02.590Z,95700.75
2022-12-12T08:45:29.157Z,95686.47
2022-12-12T08:47:55.794Z,95703.09
2022-12-12T08:50:22.419Z,95679.25
2022-12-12T08:52:49.119Z,95715.56
2022-12-12T08:55:16.049Z,95684.69
2022-12-12T08:57:42.816Z,95677.22
2022-12-12T09:00:10.633Z,95686.25
2022-12-12T09:02:37.469Z,95700.84
2022-12-12T09:05:04.611Z,95697.47
2022-12-12T09:07:31.223Z,95695.66
2022-12-12T09:09:58.351Z,95713.28
2022-12-12T09:12:25.111Z,95698.81
2022-12-12T09:14:51.706Z,95720.13
2022-12-12T09:17:18.981Z,95729.22
2022-12-12T09:19:45.783Z,95724.53
2022-12-12T09:22:12.659Z,95709.09
2022-12-12T09:24:39.302Z,95706.00
2022-12-12T09:27:05.904Z,95722.81
2022-12-12T09:29:32.601Z,95723.97
2022-12-12T09:31:59.251Z,95720.97
2022-12-12T09:34:26.460Z,95741.53
2022-12-12T09:36:53.053Z,95709.66
2022-12-12T09:39:19.691Z,95725.41
2022-12-12T09:41:50.208Z,95741.78
2022-12-12T09:44:22.546Z,95707.97
2022-12-12T09:46:53.863Z,95741.19
2022-12-12T09:49:38.413Z,95747.41
2022-12-12T09:52:13.169Z,95745.38
2022-12-12T09:54:40.409Z,95701.16
2022-12-12T09:57:09.946Z,95738.13
2022-12-12T10:00:14.794Z,95742.19
2022-12-12T10:03:05.332Z,95742.28
2022-12-12T10:05:44.643Z,95724.50
2022-12-12T10:08:20.693Z,95743.19
2022-12-12T10:10:51.856Z,95742.72
2022-12-12T10:13:27.089Z,95747.94
2022-12-12T10:16:03.315Z,95743.25
2022-12-12T10:18:39.397Z,95740.94
2022-12-12T10:21:14.210Z,95748.75
2022-12-12T10:23:54.118Z,95743.50
2022-12-12T10:26:25.641Z,95711.50
2022-12-12T10:29:11.381Z,95706.09
2022-12-12T10:31:41.079Z,95761.84
2022-12-12T10:34:46.278Z,95756.41
2022-12-12T10:37:33.325Z,95761.47
2022-12-12T10:40:14.639Z,95755.28
2022-12-12T10:42:47.176Z,95758.00
2022-12-12T10:45:40.785Z,95766.13
2022-12-12T10:48:07.607Z,95720.06
2022-12-12T10:50:47.620Z,95752.88
2022-12-12T10:53:14.499Z,95718.69
2022-12-12T10:55:55.369Z,95758.22
2022-12-12T10:58:37.526Z,95723.19
2022-12-12T11:01:52.460Z,95739.88
2022-12-12T11:04:14.425Z,95744.91
2022-12-12T11:06:48.442Z,95724.13
2022-12-12T11:09:19.388Z,95754.06
2022-12-12T11:12:13.384Z,95756.38
2022-12-12T11:14:46.588Z,95724.81
2022-12-12T11:17:27.543Z,95731.63
2022-12-12T11:19:57.048Z,95749.59
2022-12-12T11:22:24.656Z,95736.19
2022-12-12T11:24:52.557Z,95725.47
2022-12-12T11:27:24.180Z,95748.00
2022-12-12T11:29:55.650Z,95754.94
2022-12-12T11:32:25.931Z,95749.81
2022-12-12T11:34:59.300Z,95715.28
2022-12-12T11:37:37.670Z,95745.03
2022-12-12T11:40:06.020Z,95723.81
2022-12-12T11:42:34.589Z,95741.19
2022-12-12T11:45:21.210Z,95723.66
2022-12-12T11:47:48.426Z,95741.31
2022-12-12T11:50:27.322Z,95737.25
2022-12-12T11:52:56.221Z,95719.88
2022-12-12T11:55:28.215Z,95736.47
2022-12-12T11:58:22.987Z,95715.09
2022-12-12T12:00:52.545Z,95727.06
2022-12-12T12:03:19.353Z,95732.63
2022-12-12T12:06:04.493Z,95730.56
2022-12-12T12:08:46.262Z,95723.16
2022-12-12T12:11:27.592Z,95700.31
2022-12-12T12:14:29.450Z,95736.69
2022-12-12T12:17:07.556Z,95730.56
2022-12-12T12:19:42.313Z,95724.47
2022-12-12T12:22:32.153Z,95722.38
2022-12-12T12:25:30.587Z,95735.06
2022-12-12T12:28:15.921Z,95737.91
2022-12-12T12:31:03.047Z,95739.53
2022-12-12T12:34:11.101Z,95725.09
2022-12-12T12:36:40.772Z,95734.81
2022-12-12T12:39:25.134Z,95712.00
2022-12-12T12:42:25.535Z,95736.59
2022-12-12T12:45:02.608Z,95740.25
2022-12-12T12:48:10.514Z,95745.78
2022-12-12T12:50:44.076Z,95734.97
2022-12-12T12:53:32.094Z,95745.31
2022-12-12T12:56:03.787Z,95743.19
2022-12-12T12:58:38.759Z,95741.84
2022-12-12T13:01:16.014Z,95720.91
2022-12-12T13:03:50.121Z,95712.31
2022-12-12T13:06:23.550Z,95699.84
2022-12-12T13:08:56.198Z,95747.22
2022-12-12T13:11:55.633Z,95744.84
2022-12-12T13:14:44.214Z,95671.97
2022-12-12T13:17:22.926Z,95750.34
2022-12-12T13:19:53.471Z,95725.59
2022-12-12T13:22:47.053Z,95746.63
2022-12-12T13:25:14.095Z,95761.63
2022-12-12T13:27:50.456Z,95730.16
2022-12-12T13:30:30.644Z,95764.38
2022-12-12T13:33:32.049Z,95741.72
2022-12-12T13:36:12.395Z,95762.06
2022-12-12T13:38:40.556Z,95767.13
2022-12-12T13:41:09.918Z,95750.63
2022-12-12T13:43:46.664Z,95760.63
2022-12-12T13:46:26.471Z,95767.50
2022-12-12T13:49:24.570Z,95772.50
2022-12-12T13:51:51.250Z,95754.16
2022-12-12T13:54:17.767Z,95774.22
2022-12-12T13:57:06.228Z,95759.31
2022-12-12T13:59:53.654Z,95780.28
2022-12-12T14:02:38.347Z,95746.28
2022-12-12T14:05:23.248Z,95781.50
2022-12-12T14:07:53.144Z,95769.50
2022-12-12T14:10:26.950Z,95775.53
2022-12-12T14:12:55.309Z,95768.56
2022-12-12T14:15:32.782Z,95729.47
2022-12-12T14:18:03.224Z,95762.34
2022-12-12T14:20:33.523Z,95764.16
2022-12-12T14:23:00.073Z,95782.31
2022-12-12T14:25:34.037Z,95780.00
2022-12-12T14:28:03.445Z,95781.81
2022-12-12T14:30:45.207Z,95750.44
2022-12-12T14:33:41.270Z,95756.31
2022-12-12T14:36:19.681Z,95769.97
2022-12-12T14:39:40.759Z,95770.84
2022-12-12T14:42:20.765Z,95745.44
2022-12-12T14:44:50.830Z,95780.06
2022-12-12T14:47:18.113Z,95771.72
2022-12-12T14:49:45.009Z,95784.63
2022-12-12T14:52:19.916Z,95774.81
2022-12-12T14:54:48.851Z,95781.44
2022-12-12T14:57:23.244Z,95788.88
2022-12-12T14:59:50.668Z,95781.34
2022-12-12T15:02:25.062Z,95784.69
2022-12-12T15:05:05.147Z,95755.88
2022-12-12T15:07:34.235Z,95777.72
2022-12-12T15:10:01.341Z,95755.06
2022-12-12T15:12:42.741Z,95773.22
2022-12-12T15:15:26.638Z,95770.69
2022-12-12T15:17:55.577Z,95743.22
2022-12-12T15:20:26.032Z,95737.66
2022-12-12T15:22:57.585Z,95775.88
2022-12-12T15:25:27.535Z,95763.72
2022-12-12T15:27:56.486Z,95765.78
2022-12-12T15:30:36.908Z,95747.34
2022-12-12T15:33:06.201Z,95721.84
2022-12-12T15:35:32.969Z,95779.19
2022-12-12T15:38:07.969Z,95783.53
2022-12-12T15:40:36.026Z,95783.25
2022-12-12T15:43:05.661Z,95781.94
2022-12-12T15:45:44.640Z,95778.53
2022-12-12T15:48:16.093Z,95756.13
2022-12-12T15:50:42.651Z,95777.50
2022-12-12T15:53:31.432Z,95763.28
2022-12-12T15:56:06.739Z,95754.63
2022-12-12T15:58:36.945Z,95765.16
2022-12-12T16:01:04.992Z,95758.72
2022-12-12T16:03:32.587Z,95733.72
2022-12-12T16:06:16.885Z,95751.84
2022-12-12T16:09:15.207Z,95767.38
2022-12-12T16:11:45.368Z,95767.38
2022-12-12T16:14:33.951Z,95770.19
2022-12-12T16:17:24.803Z,95775.63
2022-12-12T16:19:57.437Z,95772.75
2022-12-12T16:22:36.104Z,95778.97
2022-12-12T16:25:26.985Z,95775.09
2022-12-12T16:28:05.636Z,95777.91
2022-12-12T16:30:32.317Z,95776.97
2022-12-12T16:32:59.012Z,95741.69
2022-12-12T16:35:26.169Z,95777.41
2022-12-12T16:37:53.471Z,95742.75
2022-12-12T16:40:21.708Z,95772.47
2022-12-12T16:42:59.464Z,95782.53
2022-12-12T16:45:26.866Z,95754.72
2022-12-12T16:47:53.562Z,95765.88
2022-12-12T16:50:20.235Z,95743.19
2022-12-12T16:52:47.174Z,95792.59
2022-12-12T16:55:24.208Z,95774.69
2022-12-12T16:57:50.901Z,95767.97
2022-12-12T17:00:18.194Z,95793.28
2022-12-12T17:02:44.980Z,95810.81
2022-12-12T17:05:21.953Z,95815.59
2022-12-12T17:07:49.521Z,95814.34
2022-12-12T17:10:17.518Z,95794.44
2022-12-12T17:12:44.436Z,95803.06
2022-12-12T17:15:16.993Z,95808.31
2022-12-12T17:17:43.648Z,95810.50
2022-12-12T17:20:10.473Z,95806.59
2022-12-12T17:22:37.128Z,95772.09
2022-12-12T17:25:04.026Z,95782.81
2022-12-12T17:27:30.595Z,95803.56
2022-12-12T17:29:57.200Z,95807.56
2022-12-12T17:32:24.615Z,95813.75
2022-12-12T17:34:51.405Z,95801.75
2022-12-12T17:37:18.341Z,95803.75
2022-12-12T17:39:45.232Z,95813.16
2022-12-12T17:42:11.937Z,95763.41
2022-12-12T17:44:38.772Z,95786.81
2022-12-12T17:47:05.520Z,95806.41
2022-12-12T17:49:32.272Z,95790.41
2022-12-12T17:52:00.480Z,95785.63
2022-12-12T17:54:27.288Z,95809.00
2022-12-12T17:56:53.938Z,95812.53
2022-12-12T17:59:20.822Z,95781.72
2022-12-12T18:01:53.692Z,95786.38
2022-12-12T18:04:27.692Z,95806.63
2022-12-12T18:06:55.048Z,95817.28
2022-12-12T18:09:23.705Z,95772.25
2022-12-12T18:11:50.311Z,95820.53
2022-12-12T18:14:19.055Z,95825.53
2022-12-12T18:16:51.397Z,95806.41
2022-12-12T18:19:22.831Z,95814.19
2022-12-12T18:22:05.582Z,95800.78
2022-12-12T18:24:33.119Z,95783.56
2022-12-12T18:27:01.204Z,95820.13
2022-12-12T18:29:28.335Z,95807.50
2022-12-12T18:31:55.161Z,95802.03
2022-12-12T18:34:22.207Z,95828.66
2022-12-12T18:36:49.779Z,95812.75
2022-12-12T18:39:16.819Z,95785.72
2022-12-12T18:41:43.773Z,95810.66
2022-12-12T18:44:14.518Z,95791.09
2022-12-12T18:46:43.424Z,95821.94
2022-12-12T18:49:15.856Z,95814.22
2022-12-12T18:51:44.063Z,95810.97
2022-12-12T18:54:15.333Z,95822.63
2022-12-12T18:56:43.922Z,95801.78
2022-12-12T18:59:10.786Z,95838.19
2022-12-12T19:01:38.690Z,95827.38
2022-12-12T19:04:12.146Z,95818.56
2022-12-12T19:06:41.650Z,95793.69
2022-12-12T19:09:19.326Z,95811.75
2022-12-12T19:11:47.369Z,95806.88
2022-12-12T19:14:16.310Z,95803.28
2022-12-12T19:16:43.883Z,95785.25
2022-12-12T19:19:11.003Z,95844.47
2022-12-12T19:21:38.539Z,95842.31
2022-12-12T19:24:09.074Z,95846.13
2022-12-12T19:26:37.114Z,95839.09
2022-12-12T19:29:09.793Z,95842.22
2022-12-12T19:31:38.674Z,95839.44
2022-12-12T19:34:07.757Z,95840.13
2022-12-12T19:36:37.701Z,95847.44
2022-12-12T19:39:06.483Z,95820.91
2022-12-12T19:41:35.755Z,95851.00
2022-12-12T19:44:04.232Z,95816.63
2022-12-12T19:46:31.991Z,95857.94
2022-12-12T19:49:00.877Z,95854.13
2022-12-12T19:51:29.404Z,95846.31
2022-12-12T19:53:58.279Z,95857.22
2022-12-12T19:56:27.767Z,95855.22
2022-12-12T19:58:57.561Z,95867.81
2022-12-12T20:01:29.353Z,95851.44
2022-12-12T20:03:58.383Z,95860.78
2022-12-12T20:06:25.984Z,95827.59
2022-12-12T20:08:52.872Z,95824.41
2022-12-12T20:11:21.986Z,95861.31
2022-12-12T20:13:54.574Z,95827.91
2022-12-12T20:16:24.408Z,95839.75
2022-12-12T20:18:51.720Z,95847.94
2022-12-12T20:21:51.617Z,95827.34
2022-12-12T20:24:10.005Z,95812.97
2022-12-12T20:26:39.371Z,95846.66
2022-12-12T20:29:07.504Z,95855.91
2022-12-12T20:31:40.898Z,95820.31
2022-12-12T20:34:07.638Z,95844.59
2022-12-12T20:36:35.157Z,95858.97
2022-12-12T20:39:06.300Z,95858.31
2022-12-12T20:41:37.453Z,95856.66
2022-12-12T20:44:05.944Z,95852.88
2022-12-12T20:46:38.164Z,95846.94
2022-12-12T20:49:09.488Z,95845.72
2022-12-12T20:54:24.702Z,95850.50
2022-12-12T20:56:52.690Z,95862.88
2022-12-12T20:59:19.468Z,95840.75
2022-12-12T21:01:47.198Z,95856.97
2022-12-12T21:04:14.437Z,95844.88
2022-12-12T21:06:48.045Z,95855.69
2022-12-12T21:09:22.575Z,95827.28
2022-12-12T21:11:49.796Z,95836.25
2022-12-12T21:14:16.801Z,95838.59
2022-12-12T21:16:43.648Z,95845.31
2022-12-12T21:19:12.966Z,95836.03
2022-12-12T21:21:41.643Z,95840.03
2022-12-12T21:24:08.452Z,95863.28
2022-12-12T21:26:35.187Z,95850.06
2022-12-12T21:29:02.147Z,95829.03
2022-12-12T21:31:31.946Z,95848.09
2022-12-12T21:33:59.425Z,95852.50
2022-12-12T21:36:28.158Z,95850.38
2022-12-12T21:38:56.913Z,95836.66
2022-12-12T21:41:24.664Z,95845.97
2022-12-12T21:43:52.432Z,95846.63
2022-12-12T21:46:22.112Z,95852.22
2022-12-12T21:49:28.704Z,95843.63
2022-12-12T21:51:56.647Z,95803.88
2022-12-12T21:54:23.818Z,95850.06
2022-12-12T21:56:52.071Z,95828.50
2022-12-12T21:59:18.808Z,95808.16
2022-12-12T22:01:45.556Z,95819.03
2022-12-12T22:04:13.310Z,95847.72
2022-12-12T22:06:40.596Z,95849.00
2022-12-12T22:09:10.093Z,95846.72
2022-12-12T22:11:40.738Z,95824.31
2022-12-12T22:14:16.205Z,95833.72
2022-12-12T22:16:42.830Z,95802.75
2022-12-12T22:19:14.326Z,95841.75
2022-12-12T22:21:41.166Z,95809.63
2022-12-12T22:24:08.154Z,95838.91
2022-12-12T22:26:38.281Z,95838.84
2022-12-12T22:29:11.228Z,95838.28
2022-12-12T22:31:39.631Z,95826.41
2022-12-12T22:34:12.699Z,95839.06
2022-12-12T22:36:40.053Z,95837.19
2022-12-12T22:39:15.929Z,95797.38
2022-12-12T22:41:42.839Z,95817.31
2022-12-12T22:44:13.710Z,95828.47
2022-12-12T22:46:43.920Z,95829.19
2022-12-12T22:49:13.396Z,95810.47
2022-12-12T22:51:40.566Z,95828.75
2022-12-12T22:54:07.318Z,95799.59
2022-12-12T22:56:35.840Z,95833.81
2022-12-12T22:59:03.416Z,95835.59
2022-12-12T23:01:30.707Z,95822.28
2022-12-12T23:03:58.306Z,95838.41
2022-12-12T23:06:29.916Z,95831.72
2022-12-12T23:09:01.699Z,95811.88
2022-12-12T23:11:30.799Z,95832.97
2022-12-12T23:14:08.728Z,95805.75
2022-12-12T23:16:36.144Z,95830.63
2022-12-12T23:19:07.842Z,95828.28
2022-12-12T23:21:37.160Z,95797.09
2022-12-12T23:24:05.713Z,95804.47
2022-12-12T23:26:34.275Z,95815.25
2022-12-12T23:29:01.315Z,95818.72
2022-12-12T23:31:33.867Z,95763.13
2022-12-12T23:34:04.993Z,95819.75
2022-12-12T23:36:31.933Z,95839.28
2022-12-12T23:39:00.613Z,95828.56
2022-12-12T23:41:27.460Z,95827.56
2022-12-12T23:43:55.103Z,95825.94
2022-12-12T23:46:28.825Z,95819.06
2022-12-12T23:48:58.882Z,95819.09
2022-12-12T23:51:27.811Z,95818.28
2022-12-12T23:53:57.633Z,95811.06
2022-12-12T23:56:25.431Z,95791.59
2022-12-12T23:58:56.284Z,95795.13
